createdAt,value
2018-01-23T00:02:18.106Z,14.03
2018-01-23T00:04:46.778Z,11.83
2018-01-23T00:07:15.418Z,14.00
2018-01-23T00:09:43.921Z,16.00
2018-01-23T00:12:12.543Z,13.80
2018-01-23T00:14:42.039Z,14.97
2018-01-23T00:17:12.027Z,15.00
2018-01-23T00:19:40.362Z,14.20
2018-01-23T00:22:10.137Z,16.60
2018-01-23T00:24:39.182Z,15.90
2018-01-23T00:27:08.252Z,13.63
2018-01-23T00:29:36.963Z,12.70
2018-01-23T00:32:06.608Z,12.87
2018-01-23T00:34:34.977Z,12.53
2018-01-23T00:37:03.825Z,9.67
2018-01-23T00:39:32.258Z,8.47
2018-01-23T00:42:01.566Z,7.60
2018-01-23T00:44:30.927Z,7.50
2018-01-23T00:46:59.882Z,8.30
2018-01-23T00:49:28.565Z,7.47
2018-01-23T00:51:57.294Z,8.20
2018-01-23T00:54:25.981Z,8.13
2018-01-23T00:56:54.656Z,9.60
2018-01-23T00:59:24.525Z,8.87
2018-01-23T01:01:53.427Z,8.30
2018-01-23T01:04:22.618Z,9.37
2018-01-23T01:06:51.901Z,8.90
2018-01-23T01:09:20.111Z,8.63
2018-01-23T01:11:49.977Z,8.00
2018-01-23T01:14:18.577Z,7.40
2018-01-23T01:16:46.768Z,8.50
2018-01-23T01:19:16.258Z,8.67
2018-01-23T01:21:45.055Z,9.33
2018-01-23T01:24:14.075Z,9.80
2018-01-23T01:26:43.074Z,8.83
2018-01-23T01:29:11.112Z,8.40
2018-01-23T01:31:40.078Z,9.23
2018-01-23T01:34:08.483Z,9.80
2018-01-23T01:36:38.645Z,8.70
2018-01-23T01:39:06.900Z,9.53
2018-01-23T01:41:35.908Z,7.10
2018-01-23T01:44:04.493Z,6.33
2018-01-23T01:46:32.908Z,6.37
2018-01-23T01:49:02.851Z,7.67
2018-01-23T01:51:31.728Z,6.87
2018-01-23T01:54:00.890Z,7.90
2018-01-23T01:56:30.153Z,6.97
2018-01-23T01:58:58.503Z,6.50
2018-01-23T02:01:28.737Z,7.10
2018-01-23T02:03:58.360Z,7.40
2018-01-23T02:06:28.037Z,6.60
2018-01-23T02:08:56.931Z,6.83
2018-01-23T02:11:25.580Z,6.13
2018-01-23T02:13:55.108Z,8.03
2018-01-23T02:16:24.533Z,7.70
2018-01-23T02:18:53.281Z,8.17
2018-01-23T02:21:22.001Z,7.77
2018-01-23T02:23:50.260Z,8.87
2018-01-23T02:26:19.879Z,8.50
2018-01-23T02:28:48.225Z,8.83
2018-01-23T02:31:17.263Z,9.43
2018-01-23T02:33:46.233Z,8.20
2018-01-23T02:36:16.435Z,8.70
2018-01-23T02:38:45.628Z,9.07
2018-01-23T02:41:15.253Z,8.00
2018-01-23T02:43:44.659Z,8.07
2018-01-23T02:46:13.122Z,8.60
2018-01-23T02:48:42.223Z,8.73
2018-01-23T02:51:11.200Z,8.20
2018-01-23T02:53:39.732Z,6.63
2018-01-23T02:56:09.009Z,7.10
2018-01-23T02:58:37.686Z,7.60
2018-01-23T03:01:06.576Z,7.80
2018-01-23T03:03:35.300Z,8.00
2018-01-23T03:06:04.681Z,8.67
2018-01-23T03:08:33.913Z,9.27
2018-01-23T03:11:03.866Z,6.77
2018-01-23T03:13:33.655Z,7.10
2018-01-23T03:16:01.899Z,7.30
2018-01-23T03:18:30.732Z,5.43
2018-01-23T03:21:00.309Z,7.80
2018-01-23T03:23:28.974Z,7.30
2018-01-23T03:25:58.124Z,7.83
2018-01-23T03:28:26.768Z,7.40
2018-01-23T03:30:56.993Z,7.53
2018-01-23T03:33:26.027Z,6.80
2018-01-23T03:35:54.990Z,8.50
2018-01-23T03:38:23.575Z,7.43
2018-01-23T03:40:53.328Z,8.30
2018-01-23T03:43:21.808Z,7.83
2018-01-23T03:45:50.291Z,7.80
2018-01-23T03:48:19.086Z,7.70
2018-01-23T03:50:48.227Z,6.23
2018-01-23T03:53:17.642Z,8.03
2018-01-23T03:55:47.584Z,6.57
2018-01-23T03:58:16.216Z,6.73
2018-01-23T04:00:46.466Z,6.47
2018-01-23T04:03:15.089Z,7.70
2018-01-23T04:05:44.161Z,7.23
2018-01-23T04:08:13.024Z,7.80
2018-01-23T04:10:41.556Z,8.03
2018-01-23T04:13:09.884Z,7.40
2018-01-23T04:15:38.143Z,5.80
2018-01-23T04:18:06.682Z,6.80
2018-01-23T04:20:34.894Z,6.10
2018-01-23T04:23:03.978Z,5.10
2018-01-23T04:25:33.020Z,6.00
2018-01-23T04:28:01.288Z,5.80
2018-01-23T04:30:29.632Z,7.03
2018-01-23T04:32:57.736Z,7.63
2018-01-23T04:35:26.625Z,6.70
2018-01-23T04:37:55.678Z,8.13
2018-01-23T04:40:24.760Z,7.90
2018-01-23T04:42:53.360Z,7.40
2018-01-23T04:45:21.782Z,8.23
2018-01-23T04:47:51.135Z,7.83
2018-01-23T04:50:20.569Z,8.27
2018-01-23T04:52:50.142Z,7.97
2018-01-23T04:55:18.727Z,8.27
2018-01-23T04:57:47.390Z,8.20
2018-01-23T05:00:15.981Z,7.70
2018-01-23T05:02:44.363Z,8.20
2018-01-23T05:05:13.375Z,10.47
2018-01-23T05:07:42.398Z,10.77
2018-01-23T05:10:11.142Z,9.33
2018-01-23T05:12:40.817Z,8.70
2018-01-23T05:15:10.029Z,10.00
2018-01-23T05:17:38.823Z,8.90
2018-01-23T05:20:07.256Z,8.60
2018-01-23T05:22:35.450Z,9.90
2018-01-23T05:25:04.851Z,10.00
2018-01-23T05:27:33.063Z,9.93
2018-01-23T05:30:02.297Z,11.67
2018-01-23T05:32:31.367Z,10.83
2018-01-23T05:34:59.818Z,12.30
2018-01-23T05:37:28.202Z,13.30
2018-01-23T05:39:56.466Z,10.37
2018-01-23T05:42:25.261Z,10.00
2018-01-23T05:44:54.280Z,11.20
2018-01-23T05:47:22.894Z,10.50
2018-01-23T05:49:51.434Z,9.23
2018-01-23T05:52:20.441Z,9.30
2018-01-23T05:54:48.958Z,9.33
2018-01-23T05:57:17.959Z,11.47
2018-01-23T05:59:47.901Z,11.37
2018-01-23T06:02:18.412Z,10.37
2018-01-23T06:04:47.289Z,11.17
2018-01-23T06:07:16.306Z,11.07
2018-01-23T06:09:45.124Z,9.20
2018-01-23T06:12:14.009Z,10.77
2018-01-23T06:14:42.705Z,11.33
2018-01-23T06:17:11.355Z,8.50
2018-01-23T06:19:39.980Z,11.60
2018-01-23T06:22:09.535Z,10.17
2018-01-23T06:24:39.425Z,11.30
2018-01-23T06:27:08.728Z,13.50
2018-01-23T06:29:37.659Z,9.10
2018-01-23T06:32:07.854Z,19.70
2018-01-23T06:34:36.573Z,8.93
2018-01-23T06:37:05.347Z,9.63
2018-01-23T06:39:34.775Z,9.80
2018-01-23T06:42:05.138Z,10.40
2018-01-23T06:44:33.443Z,11.30
2018-01-23T06:47:02.151Z,10.77
2018-01-23T06:49:30.471Z,9.57
2018-01-23T06:51:59.293Z,10.10
2018-01-23T06:54:27.835Z,12.40
2018-01-23T06:56:56.864Z,11.13
2018-01-23T06:59:26.420Z,13.53
2018-01-23T07:01:55.096Z,19.27
2018-01-23T07:04:24.134Z,13.55
2018-01-23T07:06:52.707Z,12.57
2018-01-23T07:09:22.065Z,13.95
2018-01-23T07:11:50.601Z,12.77
2018-01-23T07:14:19.107Z,11.25
2018-01-23T07:16:48.758Z,12.48
2018-01-23T07:19:17.114Z,13.27
2018-01-23T07:21:46.468Z,14.40
2018-01-23T07:24:15.400Z,16.27
2018-01-23T07:26:44.061Z,16.20
2018-01-23T07:29:13.178Z,13.90
2018-01-23T07:31:41.961Z,14.90
2018-01-23T07:34:11.139Z,14.30
2018-01-23T07:36:39.354Z,15.30
2018-01-23T07:54:30.851Z,13.33
2018-01-23T07:57:00.424Z,13.43
2018-01-23T07:59:30.153Z,14.30
2018-01-23T08:01:58.948Z,12.93
2018-01-23T08:04:27.425Z,12.40
2018-01-23T08:06:57.123Z,14.70
2018-01-23T08:09:26.353Z,15.37
2018-01-23T08:11:54.774Z,13.43
2018-01-23T08:14:23.355Z,14.00
2018-01-23T08:16:52.697Z,12.70
2018-01-23T08:19:21.739Z,11.60
2018-01-23T08:21:51.341Z,11.73
2018-01-23T08:24:20.954Z,11.90
2018-01-23T08:26:49.717Z,12.10
2018-01-23T08:29:18.661Z,11.70
2018-01-23T08:31:47.158Z,12.63
2018-01-23T08:34:15.903Z,10.07
2018-01-23T08:36:44.214Z,10.27
2018-01-23T08:39:13.598Z,9.27
2018-01-23T08:41:43.017Z,9.73
2018-01-23T08:44:12.323Z,9.80
2018-01-23T08:46:41.515Z,12.70
2018-01-23T08:49:10.006Z,11.10
2018-01-23T08:51:38.463Z,12.50
2018-01-23T08:54:06.987Z,11.90
2018-01-23T08:56:36.128Z,10.70
2018-01-23T08:59:04.680Z,12.60
2018-01-23T09:01:34.317Z,12.77
2018-01-23T09:04:03.117Z,8.57
2018-01-23T09:06:31.370Z,9.07
2018-01-23T09:09:00.657Z,8.83
2018-01-23T09:11:30.254Z,10.07
2018-01-23T09:13:58.933Z,9.07
2018-01-23T09:16:27.242Z,9.40
2018-01-23T09:18:55.979Z,10.03
2018-01-23T09:21:25.307Z,9.60
2018-01-23T09:23:53.880Z,8.80
2018-01-23T09:26:22.921Z,9.20
2018-01-23T09:28:51.903Z,8.00
2018-01-23T09:31:20.955Z,7.93
2018-01-23T09:33:49.679Z,7.87
2018-01-23T09:36:17.986Z,8.20
2018-01-23T09:38:46.631Z,8.63
2018-01-23T09:41:15.189Z,9.03
2018-01-23T09:43:44.320Z,7.30
2018-01-23T09:46:13.018Z,7.30
2018-01-23T09:48:42.135Z,7.80
2018-01-23T09:51:10.721Z,7.50
2018-01-23T09:53:38.785Z,7.20
2018-01-23T09:56:07.995Z,8.33
2018-01-23T09:58:36.736Z,7.90
2018-01-23T10:01:05.999Z,8.40
2018-01-23T10:03:35.610Z,7.30
2018-01-23T10:06:04.589Z,8.10
2018-01-23T10:08:34.820Z,8.53
2018-01-23T10:11:03.653Z,9.40
2018-01-23T10:13:31.944Z,10.80
2018-01-23T10:16:00.282Z,7.97
2018-01-23T10:18:29.011Z,8.47
2018-01-23T10:20:59.276Z,7.60
2018-01-23T10:23:28.218Z,7.90
2018-01-23T10:25:57.589Z,7.90
2018-01-23T10:28:27.496Z,7.37
2018-01-23T10:30:56.875Z,8.00
2018-01-23T10:33:25.050Z,7.40
2018-01-23T10:35:54.447Z,7.10
2018-01-23T10:38:24.792Z,6.23
2018-01-23T10:40:53.917Z,7.33
2018-01-23T10:43:23.208Z,9.17
2018-01-23T10:45:52.856Z,6.53
2018-01-23T10:48:21.981Z,4.67
2018-01-23T10:50:50.214Z,5.03
2018-01-23T10:53:20.393Z,4.40
2018-01-23T10:55:49.447Z,4.60
2018-01-23T10:58:18.741Z,3.93
2018-01-23T11:00:47.857Z,5.13
2018-01-23T11:03:16.388Z,4.20
2018-01-23T11:05:45.907Z,4.63
2018-01-23T11:08:14.950Z,4.73
2018-01-23T11:10:44.380Z,4.83
2018-01-23T11:13:13.239Z,5.00
2018-01-23T11:15:42.040Z,5.10
2018-01-23T11:18:10.946Z,5.30
2018-01-23T11:20:39.889Z,5.13
2018-01-23T11:23:08.918Z,7.33
2018-01-23T11:25:37.399Z,5.53
2018-01-23T11:28:06.529Z,4.97
2018-01-23T11:30:35.394Z,5.10
2018-01-23T11:33:04.002Z,5.40
2018-01-23T11:35:32.644Z,3.97
2018-01-23T11:38:01.820Z,4.10
2018-01-23T11:40:30.290Z,3.70
2018-01-23T11:42:59.284Z,3.17
2018-01-23T11:45:28.140Z,3.70
2018-01-23T11:47:56.891Z,3.20
2018-01-23T11:50:25.602Z,4.70
2018-01-23T11:52:55.060Z,3.20
2018-01-23T11:55:23.390Z,4.93
2018-01-23T11:57:52.627Z,4.03
2018-01-23T12:00:22.785Z,4.87
2018-01-23T12:02:52.518Z,4.83
2018-01-23T12:05:20.851Z,4.10
2018-01-23T12:07:50.106Z,4.50
2018-01-23T12:10:19.176Z,4.30
2018-01-23T12:12:48.064Z,4.07
2018-01-23T12:15:17.669Z,3.53
2018-01-23T12:17:46.429Z,4.43
2018-01-23T12:20:14.942Z,3.80
2018-01-23T12:22:43.808Z,4.10
2018-01-23T12:25:14.139Z,4.00
2018-01-23T12:27:42.905Z,3.70
2018-01-23T12:30:13.026Z,3.93
2018-01-23T12:32:42.453Z,3.50
2018-01-23T12:35:12.030Z,4.00
2018-01-23T12:37:41.084Z,4.30
2018-01-23T12:40:10.293Z,3.87
2018-01-23T12:42:39.036Z,4.30
2018-01-23T12:45:07.802Z,4.20
2018-01-23T12:47:36.854Z,8.17
2018-01-23T12:50:05.726Z,5.17
2018-01-23T12:52:34.525Z,5.07
2018-01-23T12:55:04.319Z,4.10
2018-01-23T12:57:33.423Z,4.53
2018-01-23T13:00:02.780Z,4.40
2018-01-23T13:02:31.497Z,3.77
2018-01-23T13:05:00.699Z,4.00
2018-01-23T13:07:29.543Z,4.60
2018-01-23T13:09:59.605Z,4.00
2018-01-23T13:12:28.475Z,4.33
2018-01-23T13:14:57.199Z,3.47
2018-01-23T13:17:26.743Z,3.87
2018-01-23T13:19:55.136Z,4.33
2018-01-23T13:22:24.585Z,4.10
2018-01-23T13:24:53.015Z,4.03
2018-01-23T13:27:22.630Z,4.87
2018-01-23T13:29:52.076Z,5.83
2018-01-23T13:32:20.976Z,5.07
2018-01-23T13:34:50.773Z,4.60
2018-01-23T13:37:19.672Z,3.80
2018-01-23T13:39:49.578Z,4.40
2018-01-23T13:42:18.540Z,4.20
2018-01-23T13:44:47.019Z,3.93
2018-01-23T13:47:15.411Z,4.63
2018-01-23T13:49:43.950Z,5.40
2018-01-23T13:52:12.429Z,5.50
2018-01-23T13:54:42.459Z,4.90
2018-01-23T13:57:10.629Z,4.97
2018-01-23T13:59:39.750Z,4.53
2018-01-23T14:02:08.366Z,6.63
2018-01-23T14:04:37.668Z,5.73
2018-01-23T14:07:06.571Z,4.93
2018-01-23T14:09:35.951Z,4.63
2018-01-23T14:12:05.606Z,5.30
2018-01-23T14:14:34.160Z,5.53
2018-01-23T14:17:03.726Z,4.77
2018-01-23T14:19:32.702Z,4.80
2018-01-23T14:22:02.016Z,6.57
2018-01-23T14:24:31.984Z,5.90
2018-01-23T14:27:01.021Z,5.73
2018-01-23T14:29:29.980Z,5.50
2018-01-23T14:31:58.922Z,5.17
2018-01-23T14:34:28.876Z,5.50
2018-01-23T14:36:57.642Z,7.67
2018-01-23T14:39:26.598Z,6.83
2018-01-23T14:41:55.211Z,5.83
2018-01-23T14:44:24.492Z,6.07
2018-01-23T14:46:54.431Z,5.70
2018-01-23T14:49:23.480Z,8.77
2018-01-23T14:51:51.888Z,5.57
2018-01-23T14:54:21.016Z,5.30
2018-01-23T14:56:49.543Z,5.80
2018-01-23T14:59:18.993Z,4.90
2018-01-23T15:01:47.845Z,6.07
2018-01-23T15:04:17.154Z,5.43
2018-01-23T15:06:46.052Z,6.83
2018-01-23T15:09:18.595Z,5.47
2018-01-23T15:11:47.786Z,5.63
2018-01-23T15:14:16.814Z,5.63
2018-01-23T15:16:45.069Z,5.83
2018-01-23T15:19:14.161Z,5.80
2018-01-23T15:21:44.371Z,5.67
2018-01-23T15:24:13.031Z,5.90
2018-01-23T15:26:42.238Z,5.60
2018-01-23T15:29:11.019Z,5.33
2018-01-23T15:31:40.690Z,5.90
2018-01-23T15:34:09.231Z,5.07
2018-01-23T15:36:38.605Z,5.63
2018-01-23T15:39:07.551Z,5.20
2018-01-23T15:41:36.902Z,5.83
2018-01-23T15:44:06.222Z,6.30
2018-01-23T15:46:34.815Z,6.30
2018-01-23T15:49:04.518Z,5.47
2018-01-23T15:51:34.314Z,6.00
2018-01-23T15:54:03.415Z,6.97
2018-01-23T15:56:32.062Z,6.87
2018-01-23T15:59:00.691Z,7.30
2018-01-23T16:01:30.365Z,7.17
2018-01-23T16:03:58.949Z,7.27
2018-01-23T16:06:27.106Z,7.30
2018-01-23T16:08:55.439Z,6.93
2018-01-23T16:11:24.739Z,8.30
2018-01-23T16:13:52.938Z,8.13
2018-01-23T16:16:21.748Z,7.20
2018-01-23T16:18:55.664Z,7.47
2018-01-23T16:21:24.799Z,8.10
2018-01-23T16:23:53.525Z,8.00
2018-01-23T16:26:22.704Z,8.27
2018-01-23T16:28:51.428Z,7.97
2018-01-23T16:31:20.895Z,8.20
2018-01-23T16:33:48.996Z,7.10
2018-01-23T16:36:17.815Z,7.37
2018-01-23T16:38:47.398Z,9.30
2018-01-23T16:41:16.697Z,7.10
2018-01-23T16:43:45.344Z,6.47
2018-01-23T16:46:13.735Z,6.60
2018-01-23T16:48:43.478Z,6.70
2018-01-23T16:51:13.274Z,5.93
2018-01-23T16:53:41.739Z,8.27
2018-01-23T16:56:10.302Z,8.40
2018-01-23T16:58:39.618Z,7.30
2018-01-23T17:01:08.947Z,23.67
2018-01-23T17:03:37.522Z,7.63
2018-01-23T17:06:07.402Z,6.70
2018-01-23T17:08:36.161Z,7.47
2018-01-23T17:11:04.206Z,7.50
2018-01-23T17:13:33.036Z,8.07
2018-01-23T17:16:02.559Z,7.43
2018-01-23T17:18:31.259Z,7.83
2018-01-23T17:21:00.869Z,7.13
2018-01-23T17:23:29.472Z,7.70
2018-01-23T17:25:59.595Z,8.57
2018-01-23T17:28:28.054Z,9.80
2018-01-23T17:30:57.659Z,8.10
2018-01-23T17:33:26.690Z,8.40
2018-01-23T17:35:56.039Z,9.30
2018-01-23T17:38:24.572Z,10.43
2018-01-23T17:40:52.765Z,9.70
2018-01-23T17:43:21.155Z,9.03
2018-01-23T17:45:50.335Z,9.40
2018-01-23T17:48:18.783Z,9.17
2018-01-23T17:50:48.062Z,11.77
2018-01-23T17:53:17.349Z,10.50
2018-01-23T17:55:45.934Z,10.80
2018-01-23T17:58:15.248Z,12.30
2018-01-23T18:00:43.471Z,11.60
2018-01-23T18:03:12.974Z,11.70
2018-01-23T18:05:42.821Z,13.30
2018-01-23T18:08:11.076Z,12.73
2018-01-23T18:10:40.526Z,14.10
2018-01-23T18:13:08.778Z,12.90
2018-01-23T18:15:37.950Z,15.50
2018-01-23T18:18:06.404Z,17.07
2018-01-23T18:20:35.383Z,15.10
2018-01-23T18:23:04.317Z,16.23
2018-01-23T18:25:33.351Z,15.35
2018-01-23T18:28:02.104Z,16.60
2018-01-23T18:30:30.456Z,16.73
2018-01-23T18:32:58.778Z,15.40
2018-01-23T18:35:28.466Z,15.23
2018-01-23T18:37:57.606Z,15.52
2018-01-23T18:40:27.724Z,16.50
2018-01-23T18:42:58.191Z,16.90
2018-01-23T18:45:26.804Z,16.92
2018-01-23T18:47:54.821Z,19.55
2018-01-23T18:50:22.960Z,17.60
2018-01-23T18:52:51.337Z,17.52
2018-01-23T18:55:20.243Z,18.60
2018-01-23T18:57:49.994Z,17.83
2018-01-23T19:00:19.124Z,18.15
2018-01-23T19:02:47.273Z,19.87
2018-01-23T19:05:16.365Z,19.90
2018-01-23T19:07:45.034Z,22.07
2018-01-23T19:10:13.348Z,22.00
2018-01-23T19:12:42.218Z,20.37
2018-01-23T19:15:10.321Z,22.23
2018-01-23T19:17:40.559Z,23.90
2018-01-23T19:20:10.474Z,23.70
2018-01-23T19:22:39.886Z,25.05
2018-01-23T19:25:08.762Z,24.30
2018-01-23T19:27:37.819Z,23.62
2018-01-23T19:30:06.374Z,23.12
2018-01-23T19:32:36.119Z,23.60
2018-01-23T19:35:05.401Z,24.23
2018-01-23T19:37:34.344Z,23.75
2018-01-23T19:40:03.265Z,26.08
2018-01-23T19:42:31.885Z,29.05
2018-01-23T19:45:00.640Z,26.20
2018-01-23T19:47:28.839Z,28.73
2018-01-23T19:49:58.000Z,27.50
2018-01-23T19:52:26.457Z,26.08
2018-01-23T19:54:56.197Z,27.00
2018-01-23T19:57:24.479Z,27.00
2018-01-23T19:59:54.100Z,27.37
2018-01-23T20:02:22.631Z,24.65
2018-01-23T20:04:51.135Z,25.55
2018-01-23T20:07:19.864Z,24.80
2018-01-23T20:09:48.743Z,26.05
2018-01-23T20:12:17.850Z,24.80
2018-01-23T20:14:47.075Z,21.90
2018-01-23T20:17:15.736Z,21.62
2018-01-23T20:19:44.645Z,22.90
2018-01-23T20:22:12.981Z,22.98
2018-01-23T20:24:41.153Z,23.90
2018-01-23T20:27:10.689Z,24.30
2018-01-23T20:29:38.897Z,25.17
2018-01-23T20:32:08.132Z,22.40
2018-01-23T20:34:37.489Z,25.52
2018-01-23T20:37:06.586Z,20.75
2018-01-23T20:39:35.987Z,23.45
2018-01-23T20:42:04.075Z,21.35
2018-01-23T20:44:33.673Z,22.58
2018-01-23T20:47:02.675Z,23.02
2018-01-23T20:49:31.417Z,23.08
2018-01-23T20:52:00.110Z,20.85
2018-01-23T20:54:29.641Z,20.02
2018-01-23T20:56:59.673Z,22.23
2018-01-23T20:59:28.526Z,22.42
2018-01-23T21:01:56.681Z,22.37
2018-01-23T21:04:24.790Z,23.30
2018-01-23T21:06:53.316Z,22.98
2018-01-23T21:09:21.484Z,26.73
2018-01-23T21:11:51.126Z,38.50
2018-01-23T21:14:19.745Z,38.60
2018-01-23T21:16:47.934Z,35.28
2018-01-23T21:19:17.064Z,32.80
2018-01-23T21:21:45.245Z,36.55
2018-01-23T21:24:14.162Z,35.85
2018-01-23T21:26:42.836Z,44.30
2018-01-23T21:29:12.147Z,46.72
2018-01-23T21:31:42.381Z,39.70
2018-01-23T21:34:11.556Z,32.15
2018-01-23T21:36:39.803Z,34.75
2018-01-23T21:39:08.569Z,37.15
2018-01-23T21:41:37.257Z,36.70
2018-01-23T21:44:06.398Z,32.92
2018-01-23T21:46:35.403Z,31.58
2018-01-23T21:49:03.634Z,35.95
2018-01-23T21:51:32.461Z,36.55
2018-01-23T21:54:00.550Z,40.00
2018-01-23T21:56:29.937Z,39.92
2018-01-23T21:58:58.495Z,39.47
2018-01-23T22:01:26.617Z,34.40
2018-01-23T22:03:55.221Z,36.47
2018-01-23T22:06:24.181Z,34.22
2018-01-23T22:08:52.435Z,33.72
2018-01-23T22:11:21.551Z,30.12
2018-01-23T22:13:50.275Z,27.13
2018-01-23T22:16:19.887Z,29.77
2018-01-23T22:18:48.204Z,26.37
2018-01-23T22:21:16.697Z,26.55
2018-01-23T22:23:45.690Z,27.20
2018-01-23T22:26:14.679Z,30.48
2018-01-23T22:28:43.752Z,35.80
2018-01-23T22:31:12.341Z,42.00
2018-01-23T22:33:41.013Z,47.15
2018-01-23T22:36:09.454Z,45.40
2018-01-23T22:38:38.946Z,48.60
2018-01-23T22:41:08.391Z,52.80
2018-01-23T22:43:37.643Z,55.50
2018-01-23T22:46:07.569Z,45.47
2018-01-23T22:48:36.240Z,40.12
2018-01-23T22:51:05.152Z,39.25
2018-01-23T22:53:34.191Z,34.10
2018-01-23T22:56:03.783Z,34.05
2018-01-23T22:58:33.713Z,31.62
2018-01-23T23:01:03.239Z,26.40
2018-01-23T23:03:32.128Z,25.80
2018-01-23T23:06:00.989Z,26.17
2018-01-23T23:08:29.638Z,27.42
2018-01-23T23:10:58.870Z,27.13
2018-01-23T23:13:27.860Z,30.33
2018-01-23T23:15:56.657Z,28.87
2018-01-23T23:18:24.926Z,28.12
2018-01-23T23:20:54.321Z,23.23
2018-01-23T23:23:24.086Z,25.37
2018-01-23T23:25:52.197Z,23.38
2018-01-23T23:28:20.366Z,21.37
2018-01-23T23:30:49.364Z,20.85
2018-01-23T23:33:18.066Z,19.60
2018-01-23T23:35:46.778Z,20.77
2018-01-23T23:38:16.359Z,21.83
2018-01-23T23:40:44.735Z,23.05
2018-01-23T23:43:14.629Z,21.48
2018-01-23T23:45:43.879Z,21.30
2018-01-23T23:48:12.692Z,22.23
2018-01-23T23:50:41.551Z,23.20
2018-01-23T23:53:10.297Z,25.33
2018-01-23T23:55:40.191Z,24.02
2018-01-23T23:58:09.160Z,23.90
